sensor_id;sensor_type;location;lat;lon;timestamp;P1;durP1;ratioP1;P2;durP2;ratioP2
20441;SDS011;10380;52.102;20.614;2022-08-19T00:01:43;14.93;;;13.18;;
20441;SDS011;10380;52.102;20.614;2022-08-19T00:04:23;15.88;;;13.20;;
20441;SDS011;10380;52.102;20.614;2022-08-19T00:06:52;16.25;;;13.05;;
20441;SDS011;10380;52.102;20.614;2022-08-19T00:09:21;17.30;;;13.55;;
20441;SDS011;10380;52.102;20.614;2022-08-19T00:11:49;16.52;;;13.43;;
20441;SDS011;10380;52.102;20.614;2022-08-19T00:14:17;19.35;;;13.88;;
20441;SDS011;10380;52.102;20.614;2022-08-19T00:16:47;18.60;;;14.07;;
20441;SDS011;10380;52.102;20.614;2022-08-19T00:19:15;14.75;;;13.10;;
20441;SDS011;10380;52.102;20.614;2022-08-19T00:21:43;16.05;;;13.57;;
20441;SDS011;10380;52.102;20.614;2022-08-19T00:24:11;18.33;;;13.98;;
20441;SDS011;10380;52.102;20.614;2022-08-19T00:26:40;17.33;;;13.73;;
20441;SDS011;10380;52.102;20.614;2022-08-19T00:29:10;17.80;;;14.50;;
20441;SDS011;10380;52.102;20.614;2022-08-19T00:31:39;17.58;;;14.13;;
20441;SDS011;10380;52.102;20.614;2022-08-19T00:34:06;17.25;;;14.43;;
20441;SDS011;10380;52.102;20.614;2022-08-19T00:36:34;18.00;;;13.93;;
20441;SDS011;10380;52.102;20.614;2022-08-19T00:39:01;21.10;;;15.60;;
20441;SDS011;10380;52.102;20.614;2022-08-19T00:41:29;20.98;;;14.60;;
20441;SDS011;10380;52.102;20.614;2022-08-19T00:43:58;15.75;;;14.15;;
20441;SDS011;10380;52.102;20.614;2022-08-19T00:46:31;17.17;;;15.23;;
20441;SDS011;10380;52.102;20.614;2022-08-19T00:49:00;18.63;;;15.30;;
20441;SDS011;10380;52.102;20.614;2022-08-19T00:51:32;20.25;;;16.65;;
20441;SDS011;10380;52.102;20.614;2022-08-19T00:54:00;19.58;;;15.95;;
20441;SDS011;10380;52.102;20.614;2022-08-19T00:56:29;18.48;;;15.27;;
20441;SDS011;10380;52.102;20.614;2022-08-19T00:58:57;22.23;;;16.42;;
20441;SDS011;10380;52.102;20.614;2022-08-19T01:01:25;20.60;;;16.52;;
20441;SDS011;10380;52.102;20.614;2022-08-19T01:03:52;17.67;;;15.82;;
20441;SDS011;10380;52.102;20.614;2022-08-19T01:06:26;21.25;;;17.95;;
20441;SDS011;10380;52.102;20.614;2022-08-19T01:08:54;20.52;;;17.70;;
20441;SDS011;10380;52.102;20.614;2022-08-19T01:11:21;21.90;;;19.05;;
20441;SDS011;10380;52.102;20.614;2022-08-19T01:13:48;18.33;;;16.50;;
20441;SDS011;10380;52.102;20.614;2022-08-19T01:16:19;22.30;;;19.70;;
20441;SDS011;10380;52.102;20.614;2022-08-19T01:18:49;28.50;;;19.48;;
20441;SDS011;10380;52.102;20.614;2022-08-19T01:21:32;21.88;;;19.52;;
20441;SDS011;10380;52.102;20.614;2022-08-19T01:24:05;25.60;;;20.40;;
20441;SDS011;10380;52.102;20.614;2022-08-19T01:26:37;21.30;;;18.98;;
20441;SDS011;10380;52.102;20.614;2022-08-19T01:29:07;26.05;;;20.13;;
20441;SDS011;10380;52.102;20.614;2022-08-19T01:31:35;23.67;;;20.45;;
20441;SDS011;10380;52.102;20.614;2022-08-19T01:34:02;23.17;;;20.30;;
20441;SDS011;10380;52.102;20.614;2022-08-19T01:36:32;28.48;;;20.73;;
20441;SDS011;10380;52.102;20.614;2022-08-19T01:39:06;23.83;;;19.83;;
20441;SDS011;10380;52.102;20.614;2022-08-19T01:41:36;26.15;;;21.15;;
20441;SDS011;10380;52.102;20.614;2022-08-19T01:44:03;24.75;;;20.52;;
20441;SDS011;10380;52.102;20.614;2022-08-19T01:46:44;23.75;;;21.20;;
20441;SDS011;10380;52.102;20.614;2022-08-19T01:49:13;27.17;;;23.17;;
20441;SDS011;10380;52.102;20.614;2022-08-19T01:51:41;27.15;;;23.75;;
20441;SDS011;10380;52.102;20.614;2022-08-19T01:54:09;30.55;;;23.08;;
20441;SDS011;10380;52.102;20.614;2022-08-19T01:56:38;29.48;;;24.77;;
20441;SDS011;10380;52.102;20.614;2022-08-19T01:59:08;30.40;;;23.92;;
20441;SDS011;10380;52.102;20.614;2022-08-19T02:01:38;30.90;;;24.17;;
20441;SDS011;10380;52.102;20.614;2022-08-19T02:04:05;30.23;;;25.95;;
20441;SDS011;10380;52.102;20.614;2022-08-19T02:06:34;27.83;;;24.23;;
20441;SDS011;10380;52.102;20.614;2022-08-19T02:09:02;31.92;;;23.98;;
20441;SDS011;10380;52.102;20.614;2022-08-19T02:11:35;29.35;;;24.90;;
20441;SDS011;10380;52.102;20.614;2022-08-19T02:14:04;29.80;;;25.35;;
20441;SDS011;10380;52.102;20.614;2022-08-19T02:16:33;29.35;;;24.85;;
20441;SDS011;10380;52.102;20.614;2022-08-19T02:19:01;31.20;;;24.65;;
20441;SDS011;10380;52.102;20.614;2022-08-19T02:21:28;32.15;;;24.65;;
20441;SDS011;10380;52.102;20.614;2022-08-19T02:23:56;27.10;;;22.55;;
20441;SDS011;10380;52.102;20.614;2022-08-19T02:26:23;27.23;;;22.52;;
20441;SDS011;10380;52.102;20.614;2022-08-19T02:28:52;24.52;;;21.88;;
20441;SDS011;10380;52.102;20.614;2022-08-19T02:31:21;22.52;;;20.23;;
20441;SDS011;10380;52.102;20.614;2022-08-19T02:33:51;22.67;;;19.40;;
20441;SDS011;10380;52.102;20.614;2022-08-19T02:36:22;21.17;;;18.67;;
20441;SDS011;10380;52.102;20.614;2022-08-19T02:38:50;23.73;;;19.13;;
20441;SDS011;10380;52.102;20.614;2022-08-19T02:41:25;20.80;;;18.55;;
20441;SDS011;10380;52.102;20.614;2022-08-19T02:43:58;22.45;;;18.20;;
20441;SDS011;10380;52.102;20.614;2022-08-19T02:46:47;21.13;;;17.42;;
20441;SDS011;10380;52.102;20.614;2022-08-19T02:49:19;20.23;;;16.33;;
20441;SDS011;10380;52.102;20.614;2022-08-19T02:51:46;20.73;;;16.90;;
20441;SDS011;10380;52.102;20.614;2022-08-19T02:54:14;21.77;;;16.33;;
20441;SDS011;10380;52.102;20.614;2022-08-19T02:56:42;21.35;;;18.23;;
20441;SDS011;10380;52.102;20.614;2022-08-19T02:59:10;23.38;;;17.05;;
20441;SDS011;10380;52.102;20.614;2022-08-19T03:01:39;21.45;;;17.15;;
20441;SDS011;10380;52.102;20.614;2022-08-19T03:04:09;20.88;;;17.70;;
20441;SDS011;10380;52.102;20.614;2022-08-19T03:06:39;20.73;;;17.25;;
20441;SDS011;10380;52.102;20.614;2022-08-19T03:09:07;21.85;;;15.95;;
20441;SDS011;10380;52.102;20.614;2022-08-19T03:11:35;16.92;;;15.10;;
20441;SDS011;10380;52.102;20.614;2022-08-19T03:14:04;19.60;;;16.73;;
20441;SDS011;10380;52.102;20.614;2022-08-19T03:16:33;18.25;;;16.23;;
20441;SDS011;10380;52.102;20.614;2022-08-19T03:19:06;19.63;;;15.73;;
20441;SDS011;10380;52.102;20.614;2022-08-19T03:21:35;19.67;;;16.52;;
20441;SDS011;10380;52.102;20.614;2022-08-19T03:24:04;18.52;;;15.95;;
20441;SDS011;10380;52.102;20.614;2022-08-19T03:26:38;22.95;;;16.17;;
20441;SDS011;10380;52.102;20.614;2022-08-19T03:29:07;20.55;;;17.05;;
20441;SDS011;10380;52.102;20.614;2022-08-19T03:31:39;17.45;;;15.50;;
20441;SDS011;10380;52.102;20.614;2022-08-19T03:34:19;23.33;;;16.38;;
20441;SDS011;10380;52.102;20.614;2022-08-19T03:36:49;21.80;;;16.35;;
20441;SDS011;10380;52.102;20.614;2022-08-19T03:39:17;22.80;;;16.48;;
20441;SDS011;10380;52.102;20.614;2022-08-19T03:41:45;20.50;;;16.50;;
20441;SDS011;10380;52.102;20.614;2022-08-19T03:44:15;17.92;;;16.00;;
20441;SDS011;10380;52.102;20.614;2022-08-19T03:46:49;19.05;;;16.63;;
20441;SDS011;10380;52.102;20.614;2022-08-19T03:49:19;21.33;;;17.13;;
20441;SDS011;10380;52.102;20.614;2022-08-19T03:51:53;17.80;;;15.60;;
20441;SDS011;10380;52.102;20.614;2022-08-19T03:54:21;21.17;;;16.60;;
20441;SDS011;10380;52.102;20.614;2022-08-19T03:56:50;18.00;;;15.93;;
20441;SDS011;10380;52.102;20.614;2022-08-19T03:59:21;22.10;;;16.45;;
20441;SDS011;10380;52.102;20.614;2022-08-19T04:02:02;19.45;;;17.33;;
20441;SDS011;10380;52.102;20.614;2022-08-19T04:04:33;18.63;;;15.88;;
20441;SDS011;10380;52.102;20.614;2022-08-19T04:07:00;21.95;;;16.60;;
20441;SDS011;10380;52.102;20.614;2022-08-19T04:09:27;18.63;;;16.70;;
20441;SDS011;10380;52.102;20.614;2022-08-19T04:11:55;20.08;;;17.00;;
20441;SDS011;10380;52.102;20.614;2022-08-19T04:14:25;19.52;;;15.65;;
20441;SDS011;10380;52.102;20.614;2022-08-19T04:16:56;17.95;;;16.08;;
20441;SDS011;10380;52.102;20.614;2022-08-19T04:19:25;20.38;;;16.50;;
20441;SDS011;10380;52.102;20.614;2022-08-19T04:21:53;20.17;;;16.17;;
20441;SDS011;10380;52.102;20.614;2022-08-19T04:24:21;18.83;;;16.65;;
20441;SDS011;10380;52.102;20.614;2022-08-19T04:26:48;19.65;;;16.42;;
20441;SDS011;10380;52.102;20.614;2022-08-19T04:29:22;19.13;;;15.77;;
20441;SDS011;10380;52.102;20.614;2022-08-19T04:31:52;18.83;;;15.98;;
20441;SDS011;10380;52.102;20.614;2022-08-19T04:34:20;20.58;;;16.23;;
20441;SDS011;10380;52.102;20.614;2022-08-19T04:36:51;20.70;;;16.70;;
20441;SDS011;10380;52.102;20.614;2022-08-19T04:39:24;21.17;;;15.85;;
20441;SDS011;10380;52.102;20.614;2022-08-19T04:42:12;23.23;;;16.58;;
20441;SDS011;10380;52.102;20.614;2022-08-19T04:44:58;20.73;;;16.50;;
20441;SDS011;10380;52.102;20.614;2022-08-19T04:47:25;16.52;;;14.77;;
20441;SDS011;10380;52.102;20.614;2022-08-19T04:50:12;18.65;;;15.75;;
20441;SDS011;10380;52.102;20.614;2022-08-19T04:52:40;20.05;;;17.23;;
20441;SDS011;10380;52.102;20.614;2022-08-19T04:55:12;18.70;;;15.20;;
20441;SDS011;10380;52.102;20.614;2022-08-19T04:57:40;19.05;;;15.85;;
20441;SDS011;10380;52.102;20.614;2022-08-19T05:00:07;19.10;;;15.32;;
20441;SDS011;10380;52.102;20.614;2022-08-19T05:02:36;17.50;;;14.93;;
20441;SDS011;10380;52.102;20.614;2022-08-19T05:05:05;18.70;;;15.30;;
20441;SDS011;10380;52.102;20.614;2022-08-19T05:07:33;22.15;;;16.08;;
20441;SDS011;10380;52.102;20.614;2022-08-19T05:10:00;17.13;;;15.35;;
20441;SDS011;10380;52.102;20.614;2022-08-19T05:12:29;16.38;;;14.40;;
20441;SDS011;10380;52.102;20.614;2022-08-19T05:14:57;18.73;;;14.95;;
20441;SDS011;10380;52.102;20.614;2022-08-19T05:17:25;16.65;;;15.05;;
20441;SDS011;10380;52.102;20.614;2022-08-19T05:19:58;18.58;;;16.45;;
20441;SDS011;10380;52.102;20.614;2022-08-19T05:22:45;19.73;;;15.95;;
20441;SDS011;10380;52.102;20.614;2022-08-19T05:25:14;17.50;;;14.15;;
20441;SDS011;10380;52.102;20.614;2022-08-19T05:27:46;19.67;;;15.55;;
20441;SDS011;10380;52.102;20.614;2022-08-19T05:30:14;18.30;;;14.85;;
20441;SDS011;10380;52.102;20.614;2022-08-19T05:32:42;21.35;;;14.07;;
20441;SDS011;10380;52.102;20.614;2022-08-19T05:35:09;19.73;;;16.08;;
20441;SDS011;10380;52.102;20.614;2022-08-19T05:37:38;15.95;;;13.50;;
20441;SDS011;10380;52.102;20.614;2022-08-19T05:40:08;15.50;;;13.80;;
20441;SDS011;10380;52.102;20.614;2022-08-19T05:42:36;17.60;;;13.77;;
20441;SDS011;10380;52.102;20.614;2022-08-19T05:45:05;17.80;;;13.13;;
20441;SDS011;10380;52.102;20.614;2022-08-19T05:47:34;16.63;;;14.05;;
20441;SDS011;10380;52.102;20.614;2022-08-19T05:50:07;17.45;;;12.93;;
20441;SDS011;10380;52.102;20.614;2022-08-19T05:52:36;19.58;;;13.20;;
20441;SDS011;10380;52.102;20.614;2022-08-19T05:55:09;22.02;;;13.77;;
20441;SDS011;10380;52.102;20.614;2022-08-19T05:57:36;15.68;;;13.45;;
20441;SDS011;10380;52.102;20.614;2022-08-19T06:00:04;15.80;;;12.95;;
20441;SDS011;10380;52.102;20.614;2022-08-19T06:02:37;14.48;;;12.95;;
20441;SDS011;10380;52.102;20.614;2022-08-19T06:05:05;15.43;;;13.75;;
20441;SDS011;10380;52.102;20.614;2022-08-19T06:07:33;18.80;;;13.93;;
20441;SDS011;10380;52.102;20.614;2022-08-19T06:10:00;19.42;;;12.88;;
20441;SDS011;10380;52.102;20.614;2022-08-19T06:12:28;15.07;;;13.32;;
20441;SDS011;10380;52.102;20.614;2022-08-19T06:15:02;16.00;;;12.93;;
20441;SDS011;10380;52.102;20.614;2022-08-19T06:17:32;17.08;;;12.88;;
20441;SDS011;10380;52.102;20.614;2022-08-19T06:20:05;15.68;;;13.07;;
20441;SDS011;10380;52.102;20.614;2022-08-19T06:22:37;14.95;;;13.15;;
20441;SDS011;10380;52.102;20.614;2022-08-19T06:25:09;18.67;;;13.77;;
20441;SDS011;10380;52.102;20.614;2022-08-19T06:27:37;18.00;;;12.40;;
20441;SDS011;10380;52.102;20.614;2022-08-19T06:30:25;15.05;;;10.82;;
20441;SDS011;10380;52.102;20.614;2022-08-19T06:32:52;16.17;;;13.38;;
20441;SDS011;10380;52.102;20.614;2022-08-19T06:35:20;16.75;;;12.98;;
20441;SDS011;10380;52.102;20.614;2022-08-19T06:37:47;16.08;;;12.85;;
20441;SDS011;10380;52.102;20.614;2022-08-19T06:40:14;18.50;;;13.05;;
20441;SDS011;10380;52.102;20.614;2022-08-19T06:42:41;16.48;;;12.73;;
20441;SDS011;10380;52.102;20.614;2022-08-19T06:45:20;18.90;;;13.07;;
20441;SDS011;10380;52.102;20.614;2022-08-19T06:48:00;15.15;;;11.88;;
20441;SDS011;10380;52.102;20.614;2022-08-19T06:50:27;17.95;;;13.02;;
20441;SDS011;10380;52.102;20.614;2022-08-19T06:52:54;16.80;;;12.75;;
20441;SDS011;10380;52.102;20.614;2022-08-19T06:55:21;15.90;;;13.32;;
20441;SDS011;10380;52.102;20.614;2022-08-19T06:57:49;18.00;;;12.15;;
20441;SDS011;10380;52.102;20.614;2022-08-19T07:00:19;17.75;;;13.18;;
20441;SDS011;10380;52.102;20.614;2022-08-19T07:02:47;14.85;;;12.63;;
20441;SDS011;10380;52.102;20.614;2022-08-19T07:05:22;19.85;;;12.32;;
20441;SDS011;10380;52.102;20.614;2022-08-19T07:07:50;14.85;;;13.18;;
20441;SDS011;10380;52.102;20.614;2022-08-19T07:10:17;15.60;;;12.68;;
20441;SDS011;10380;52.102;20.614;2022-08-19T07:12:45;16.75;;;12.35;;
20441;SDS011;10380;52.102;20.614;2022-08-19T07:15:14;14.95;;;11.75;;
20441;SDS011;10380;52.102;20.614;2022-08-19T07:17:44;18.27;;;12.88;;
20441;SDS011;10380;52.102;20.614;2022-08-19T07:20:14;15.38;;;12.38;;
20441;SDS011;10380;52.102;20.614;2022-08-19T07:22:43;18.13;;;12.90;;
20441;SDS011;10380;52.102;20.614;2022-08-19T07:25:11;14.75;;;13.20;;
20441;SDS011;10380;52.102;20.614;2022-08-19T07:27:39;15.25;;;12.38;;
20441;SDS011;10380;52.102;20.614;2022-08-19T07:30:11;14.40;;;11.57;;
20441;SDS011;10380;52.102;20.614;2022-08-19T07:32:40;15.90;;;13.43;;
20441;SDS011;10380;52.102;20.614;2022-08-19T07:35:07;18.20;;;12.07;;
20441;SDS011;10380;52.102;20.614;2022-08-19T07:37:35;14.98;;;12.95;;
20441;SDS011;10380;52.102;20.614;2022-08-19T07:40:04;17.60;;;11.85;;
20441;SDS011;10380;52.102;20.614;2022-08-19T07:42:32;15.88;;;11.13;;
20441;SDS011;10380;52.102;20.614;2022-08-19T07:45:00;18.08;;;11.50;;
20441;SDS011;10380;52.102;20.614;2022-08-19T07:47:27;15.98;;;11.15;;
20441;SDS011;10380;52.102;20.614;2022-08-19T07:50:14;12.20;;;10.88;;
20441;SDS011;10380;52.102;20.614;2022-08-19T07:52:42;16.80;;;11.60;;
20441;SDS011;10380;52.102;20.614;2022-08-19T07:55:14;12.77;;;10.45;;
20441;SDS011;10380;52.102;20.614;2022-08-19T07:58:03;15.95;;;9.93;;
20441;SDS011;10380;52.102;20.614;2022-08-19T08:00:31;17.80;;;11.02;;
20441;SDS011;10380;52.102;20.614;2022-08-19T08:02:58;10.98;;;9.60;;
20441;SDS011;10380;52.102;20.614;2022-08-19T08:05:26;14.93;;;10.80;;
20441;SDS011;10380;52.102;20.614;2022-08-19T08:08:13;15.32;;;10.95;;
20441;SDS011;10380;52.102;20.614;2022-08-19T08:10:59;14.75;;;10.15;;
20441;SDS011;10380;52.102;20.614;2022-08-19T08:13:27;13.48;;;10.30;;
20441;SDS011;10380;52.102;20.614;2022-08-19T08:15:54;16.05;;;10.55;;
20441;SDS011;10380;52.102;20.614;2022-08-19T08:18:23;12.23;;;10.95;;
20441;SDS011;10380;52.102;20.614;2022-08-19T08:20:55;13.82;;;10.20;;
20441;SDS011;10380;52.102;20.614;2022-08-19T08:23:23;14.02;;;11.25;;
20441;SDS011;10380;52.102;20.614;2022-08-19T08:25:55;12.85;;;9.45;;
20441;SDS011;10380;52.102;20.614;2022-08-19T08:28:24;15.02;;;10.77;;
20441;SDS011;10380;52.102;20.614;2022-08-19T08:30:55;10.70;;;9.48;;
20441;SDS011;10380;52.102;20.614;2022-08-19T08:33:24;14.57;;;10.27;;
20441;SDS011;10380;52.102;20.614;2022-08-19T08:36:00;14.38;;;9.02;;
20441;SDS011;10380;52.102;20.614;2022-08-19T08:38:30;11.27;;;10.18;;
20441;SDS011;10380;52.102;20.614;2022-08-19T08:41:07;13.77;;;9.95;;
20441;SDS011;10380;52.102;20.614;2022-08-19T08:43:40;13.98;;;9.38;;
20441;SDS011;10380;52.102;20.614;2022-08-19T08:46:19;11.07;;;9.25;;
20441;SDS011;10380;52.102;20.614;2022-08-19T08:51:43;11.38;;;9.50;;
20441;SDS011;10380;52.102;20.614;2022-08-19T08:54:25;11.68;;;9.38;;
20441;SDS011;10380;52.102;20.614;2022-08-19T08:57:07;12.75;;;9.48;;
20441;SDS011;10380;52.102;20.614;2022-08-19T08:59:40;12.43;;;9.35;;
20441;SDS011;10380;52.102;20.614;2022-08-19T09:02:09;14.32;;;10.05;;
20441;SDS011;10380;52.102;20.614;2022-08-19T09:04:36;14.27;;;9.77;;
20441;SDS011;10380;52.102;20.614;2022-08-19T09:10:10;15.00;;;9.40;;
20441;SDS011;10380;52.102;20.614;2022-08-19T09:15:28;10.40;;;9.35;;
20441;SDS011;10380;52.102;20.614;2022-08-19T09:18:00;12.98;;;9.32;;
20441;SDS011;10380;52.102;20.614;2022-08-19T09:20:32;12.25;;;9.30;;
20441;SDS011;10380;52.102;20.614;2022-08-19T09:23:00;12.23;;;9.30;;
20441;SDS011;10380;52.102;20.614;2022-08-19T09:25:28;11.38;;;9.60;;
20441;SDS011;10380;52.102;20.614;2022-08-19T09:27:55;14.82;;;8.93;;
20441;SDS011;10380;52.102;20.614;2022-08-19T09:30:32;13.02;;;9.60;;
20441;SDS011;10380;52.102;20.614;2022-08-19T09:33:01;11.82;;;8.05;;
20441;SDS011;10380;52.102;20.614;2022-08-19T09:35:29;14.48;;;8.05;;
20441;SDS011;10380;52.102;20.614;2022-08-19T09:37:57;10.48;;;8.98;;
20441;SDS011;10380;52.102;20.614;2022-08-19T09:40:28;9.57;;;8.32;;
20441;SDS011;10380;52.102;20.614;2022-08-19T09:43:04;10.82;;;8.52;;
20441;SDS011;10380;52.102;20.614;2022-08-19T09:45:38;12.02;;;7.90;;
20441;SDS011;10380;52.102;20.614;2022-08-19T09:48:06;11.77;;;8.57;;
20441;SDS011;10380;52.102;20.614;2022-08-19T09:50:40;12.05;;;8.45;;
20441;SDS011;10380;52.102;20.614;2022-08-19T09:53:18;14.32;;;9.50;;
20441;SDS011;10380;52.102;20.614;2022-08-19T09:55:54;13.95;;;8.73;;
20441;SDS011;10380;52.102;20.614;2022-08-19T09:58:21;12.75;;;9.55;;
20441;SDS011;10380;52.102;20.614;2022-08-19T10:00:55;14.07;;;8.73;;
20441;SDS011;10380;52.102;20.614;2022-08-19T10:03:22;15.13;;;8.68;;
20441;SDS011;10380;52.102;20.614;2022-08-19T10:05:55;12.70;;;9.05;;
20441;SDS011;10380;52.102;20.614;2022-08-19T10:08:25;17.10;;;9.40;;
20441;SDS011;10380;52.102;20.614;2022-08-19T10:10:55;12.55;;;9.45;;
20441;SDS011;10380;52.102;20.614;2022-08-19T10:13:26;12.55;;;8.55;;
20441;SDS011;10380;52.102;20.614;2022-08-19T10:15:56;11.85;;;9.05;;
20441;SDS011;10380;52.102;20.614;2022-08-19T10:18:32;12.82;;;9.35;;
20441;SDS011;10380;52.102;20.614;2022-08-19T10:21:10;9.95;;;8.82;;
20441;SDS011;10380;52.102;20.614;2022-08-19T10:23:40;11.13;;;9.07;;
20441;SDS011;10380;52.102;20.614;2022-08-19T10:26:13;11.05;;;8.82;;
20441;SDS011;10380;52.102;20.614;2022-08-19T10:28:44;11.65;;;8.52;;
20441;SDS011;10380;52.102;20.614;2022-08-19T10:31:13;12.40;;;9.32;;
20441;SDS011;10380;52.102;20.614;2022-08-19T10:34:05;13.00;;;8.50;;
20441;SDS011;10380;52.102;20.614;2022-08-19T10:36:35;14.15;;;9.25;;
20441;SDS011;10380;52.102;20.614;2022-08-19T10:39:21;10.60;;;8.45;;
20441;SDS011;10380;52.102;20.614;2022-08-19T10:41:48;12.93;;;8.88;;
20441;SDS011;10380;52.102;20.614;2022-08-19T10:44:15;9.10;;;8.20;;
20441;SDS011;10380;52.102;20.614;2022-08-19T10:46:44;12.63;;;8.98;;
20441;SDS011;10380;52.102;20.614;2022-08-19T10:49:15;15.32;;;8.55;;
20441;SDS011;10380;52.102;20.614;2022-08-19T10:51:44;11.80;;;9.48;;
20441;SDS011;10380;52.102;20.614;2022-08-19T10:54:35;11.43;;;8.90;;
20441;SDS011;10380;52.102;20.614;2022-08-19T10:57:21;9.93;;;8.45;;
20441;SDS011;10380;52.102;20.614;2022-08-19T11:00:03;11.05;;;8.43;;
20441;SDS011;10380;52.102;20.614;2022-08-19T11:02:30;13.40;;;9.07;;
20441;SDS011;10380;52.102;20.614;2022-08-19T11:04:59;15.65;;;8.52;;
20441;SDS011;10380;52.102;20.614;2022-08-19T11:07:38;10.50;;;8.27;;
20441;SDS011;10380;52.102;20.614;2022-08-19T11:10:06;11.93;;;8.40;;
20441;SDS011;10380;52.102;20.614;2022-08-19T11:12:39;10.65;;;8.05;;
20441;SDS011;10380;52.102;20.614;2022-08-19T11:15:07;10.20;;;8.07;;
20441;SDS011;10380;52.102;20.614;2022-08-19T11:17:38;11.38;;;7.57;;
20441;SDS011;10380;52.102;20.614;2022-08-19T11:20:11;10.98;;;7.00;;
20441;SDS011;10380;52.102;20.614;2022-08-19T11:22:40;13.90;;;7.38;;
20441;SDS011;10380;52.102;20.614;2022-08-19T11:25:10;9.70;;;7.32;;
20441;SDS011;10380;52.102;20.614;2022-08-19T11:27:39;12.23;;;8.25;;
20441;SDS011;10380;52.102;20.614;2022-08-19T11:30:12;9.13;;;7.63;;
20441;SDS011;10380;52.102;20.614;2022-08-19T11:32:40;12.70;;;8.35;;
20441;SDS011;10380;52.102;20.614;2022-08-19T11:35:14;8.95;;;7.50;;
20441;SDS011;10380;52.102;20.614;2022-08-19T11:37:48;8.43;;;6.72;;
20441;SDS011;10380;52.102;20.614;2022-08-19T11:40:16;7.47;;;6.78;;
20441;SDS011;10380;52.102;20.614;2022-08-19T11:42:44;13.40;;;7.28;;
20441;SDS011;10380;52.102;20.614;2022-08-19T11:45:26;8.52;;;6.15;;
20441;SDS011;10380;52.102;20.614;2022-08-19T11:47:54;9.82;;;6.47;;
20441;SDS011;10380;52.102;20.614;2022-08-19T11:50:22;10.93;;;6.72;;
20441;SDS011;10380;52.102;20.614;2022-08-19T11:52:51;11.48;;;6.55;;
20441;SDS011;10380;52.102;20.614;2022-08-19T11:55:20;9.70;;;6.68;;
20441;SDS011;10380;52.102;20.614;2022-08-19T11:57:48;12.23;;;7.28;;
20441;SDS011;10380;52.102;20.614;2022-08-19T12:00:15;12.48;;;7.25;;
20441;SDS011;10380;52.102;20.614;2022-08-19T12:02:43;10.30;;;6.28;;
20441;SDS011;10380;52.102;20.614;2022-08-19T12:05:10;6.65;;;5.93;;
20441;SDS011;10380;52.102;20.614;2022-08-19T12:07:39;12.18;;;6.70;;
20441;SDS011;10380;52.102;20.614;2022-08-19T12:10:07;9.48;;;6.32;;
20441;SDS011;10380;52.102;20.614;2022-08-19T12:12:37;10.25;;;6.82;;
20441;SDS011;10380;52.102;20.614;2022-08-19T12:15:12;10.32;;;5.35;;
20441;SDS011;10380;52.102;20.614;2022-08-19T12:17:41;8.38;;;6.65;;
20441;SDS011;10380;52.102;20.614;2022-08-19T12:20:09;8.90;;;6.53;;
20441;SDS011;10380;52.102;20.614;2022-08-19T12:22:37;6.80;;;5.72;;
20441;SDS011;10380;52.102;20.614;2022-08-19T12:25:08;9.48;;;6.38;;
20441;SDS011;10380;52.102;20.614;2022-08-19T12:27:37;7.63;;;5.95;;
20441;SDS011;10380;52.102;20.614;2022-08-19T12:30:09;8.65;;;6.10;;
20441;SDS011;10380;52.102;20.614;2022-08-19T12:32:38;10.63;;;6.75;;
20441;SDS011;10380;52.102;20.614;2022-08-19T12:35:06;8.73;;;6.47;;
20441;SDS011;10380;52.102;20.614;2022-08-19T12:37:34;11.00;;;6.20;;
20441;SDS011;10380;52.102;20.614;2022-08-19T12:40:01;9.15;;;7.18;;
20441;SDS011;10380;52.102;20.614;2022-08-19T12:42:29;9.45;;;6.38;;
20441;SDS011;10380;52.102;20.614;2022-08-19T12:44:56;8.60;;;6.63;;
20441;SDS011;10380;52.102;20.614;2022-08-19T12:47:24;10.60;;;6.30;;
20441;SDS011;10380;52.102;20.614;2022-08-19T12:49:52;10.15;;;6.57;;
20441;SDS011;10380;52.102;20.614;2022-08-19T12:52:24;7.82;;;7.07;;
20441;SDS011;10380;52.102;20.614;2022-08-19T12:54:54;7.60;;;6.63;;
20441;SDS011;10380;52.102;20.614;2022-08-19T12:57:23;8.77;;;7.32;;
20441;SDS011;10380;52.102;20.614;2022-08-19T13:00:08;7.47;;;6.32;;
20441;SDS011;10380;52.102;20.614;2022-08-19T13:02:42;11.80;;;6.28;;
20441;SDS011;10380;52.102;20.614;2022-08-19T13:05:13;7.28;;;6.40;;
20441;SDS011;10380;52.102;20.614;2022-08-19T13:07:45;10.48;;;5.93;;
20441;SDS011;10380;52.102;20.614;2022-08-19T13:10:13;10.13;;;6.10;;
20441;SDS011;10380;52.102;20.614;2022-08-19T13:12:45;10.45;;;5.93;;
20441;SDS011;10380;52.102;20.614;2022-08-19T13:15:14;7.93;;;6.40;;
20441;SDS011;10380;52.102;20.614;2022-08-19T13:17:50;8.70;;;6.18;;
20441;SDS011;10380;52.102;20.614;2022-08-19T13:20:19;7.22;;;5.95;;
20441;SDS011;10380;52.102;20.614;2022-08-19T13:22:47;8.27;;;5.97;;
20441;SDS011;10380;52.102;20.614;2022-08-19T13:25:15;8.20;;;5.90;;
20441;SDS011;10380;52.102;20.614;2022-08-19T13:27:45;9.57;;;6.30;;
20441;SDS011;10380;52.102;20.614;2022-08-19T13:30:17;10.63;;;5.78;;
20441;SDS011;10380;52.102;20.614;2022-08-19T13:33:04;7.93;;;6.05;;
20441;SDS011;10380;52.102;20.614;2022-08-19T13:35:38;10.95;;;6.25;;
20441;SDS011;10380;52.102;20.614;2022-08-19T13:38:17;7.60;;;5.78;;
20441;SDS011;10380;52.102;20.614;2022-08-19T13:40:47;8.20;;;5.55;;
20441;SDS011;10380;52.102;20.614;2022-08-19T13:43:17;8.15;;;5.47;;
20441;SDS011;10380;52.102;20.614;2022-08-19T13:45:52;10.68;;;6.10;;
20441;SDS011;10380;52.102;20.614;2022-08-19T13:48:23;8.10;;;5.88;;
20441;SDS011;10380;52.102;20.614;2022-08-19T13:50:52;7.07;;;5.68;;
20441;SDS011;10380;52.102;20.614;2022-08-19T13:53:20;11.82;;;6.10;;
20441;SDS011;10380;52.102;20.614;2022-08-19T13:55:48;9.05;;;5.55;;
20441;SDS011;10380;52.102;20.614;2022-08-19T13:58:17;9.88;;;5.50;;
20441;SDS011;10380;52.102;20.614;2022-08-19T14:00:45;9.77;;;5.97;;
20441;SDS011;10380;52.102;20.614;2022-08-19T14:05:44;11.10;;;6.00;;
20441;SDS011;10380;52.102;20.614;2022-08-19T14:08:13;11.57;;;5.60;;
20441;SDS011;10380;52.102;20.614;2022-08-19T14:10:40;10.52;;;6.15;;
20441;SDS011;10380;52.102;20.614;2022-08-19T14:13:12;6.90;;;5.47;;
20441;SDS011;10380;52.102;20.614;2022-08-19T14:15:42;7.88;;;5.82;;
20441;SDS011;10380;52.102;20.614;2022-08-19T14:18:11;7.97;;;5.55;;
20441;SDS011;10380;52.102;20.614;2022-08-19T14:20:39;8.45;;;5.70;;
20441;SDS011;10380;52.102;20.614;2022-08-19T14:23:07;8.73;;;6.05;;
20441;SDS011;10380;52.102;20.614;2022-08-19T14:25:34;9.25;;;6.15;;
20441;SDS011;10380;52.102;20.614;2022-08-19T14:28:01;7.63;;;5.50;;
20441;SDS011;10380;52.102;20.614;2022-08-19T14:30:30;9.27;;;5.82;;
20441;SDS011;10380;52.102;20.614;2022-08-19T14:33:00;6.32;;;5.70;;
20441;SDS011;10380;52.102;20.614;2022-08-19T14:35:30;8.27;;;5.63;;
20441;SDS011;10380;52.102;20.614;2022-08-19T14:38:04;10.00;;;5.38;;
20441;SDS011;10380;52.102;20.614;2022-08-19T14:40:32;13.02;;;5.95;;
20441;SDS011;10380;52.102;20.614;2022-08-19T14:43:01;6.15;;;5.18;;
20441;SDS011;10380;52.102;20.614;2022-08-19T14:45:32;6.00;;;5.28;;
20441;SDS011;10380;52.102;20.614;2022-08-19T14:48:03;9.23;;;5.88;;